Terminal Aerodrome Forecast
Issued by NWS

Home | Current Version | Previous Version | Text Only | Print | Product List | Glossary On
Versions: 1 2 3 4 5 6 7 8 9 10 11 12 13
000
FTUS44 KTSA 301500 AAA
TAFMLC
TAF AMD
KMLC 301527Z 3015/3112 19004KT 2SM +RA BR SCT050 BKN080 OVC090
     FM301700 16006KT 5SM -RA OVC025
      TEMPO 3020/3024 2SM -TSRA BR BKN025CB
     FM310000 09008KT 6SM -RA OVC025
     FM310600 04004KT 2SM RA OVC015=

USA.gov is the U.S. government's official web portal to all federal, state and local government web resources and services.